sensor_id;sensor_type;location;lat;lon;timestamp;P1;durP1;ratioP1;P2;durP2;ratioP2
13079;SDS011;6606;49.154;9.280;2023-02-04T00:00:12;7.10;;;5.50;;
13079;SDS011;6606;49.154;9.280;2023-02-04T00:02:55;6.53;;;5.70;;
13079;SDS011;6606;49.154;9.280;2023-02-04T00:05:37;9.73;;;7.20;;
13079;SDS011;6606;49.154;9.280;2023-02-04T00:08:18;8.53;;;7.13;;
13079;SDS011;6606;49.154;9.280;2023-02-04T00:11:00;9.63;;;7.80;;
13079;SDS011;6606;49.154;9.280;2023-02-04T00:13:43;8.20;;;6.50;;
13079;SDS011;6606;49.154;9.280;2023-02-04T00:16:25;10.33;;;7.17;;
13079;SDS011;6606;49.154;9.280;2023-02-04T00:19:07;12.30;;;6.80;;
13079;SDS011;6606;49.154;9.280;2023-02-04T00:21:48;8.00;;;6.00;;
13079;SDS011;6606;49.154;9.280;2023-02-04T00:24:30;8.90;;;6.20;;
13079;SDS011;6606;49.154;9.280;2023-02-04T00:27:11;7.67;;;6.33;;
13079;SDS011;6606;49.154;9.280;2023-02-04T00:29:54;6.00;;;5.40;;
13079;SDS011;6606;49.154;9.280;2023-02-04T00:32:36;6.63;;;5.77;;
13079;SDS011;6606;49.154;9.280;2023-02-04T00:35:18;7.60;;;5.13;;
13079;SDS011;6606;49.154;9.280;2023-02-04T00:38:00;5.80;;;5.20;;
13079;SDS011;6606;49.154;9.280;2023-02-04T00:40:42;7.43;;;5.30;;
13079;SDS011;6606;49.154;9.280;2023-02-04T00:43:24;7.07;;;5.30;;
13079;SDS011;6606;49.154;9.280;2023-02-04T00:46:07;5.87;;;4.87;;
13079;SDS011;6606;49.154;9.280;2023-02-04T00:48:49;8.23;;;5.10;;
13079;SDS011;6606;49.154;9.280;2023-02-04T00:51:31;5.83;;;5.27;;
13079;SDS011;6606;49.154;9.280;2023-02-04T00:54:13;7.33;;;5.00;;
13079;SDS011;6606;49.154;9.280;2023-02-04T00:56:56;6.07;;;4.40;;
13079;SDS011;6606;49.154;9.280;2023-02-04T00:59:37;8.87;;;4.90;;
13079;SDS011;6606;49.154;9.280;2023-02-04T01:02:20;8.80;;;4.90;;
13079;SDS011;6606;49.154;9.280;2023-02-04T01:05:02;7.97;;;5.00;;
13079;SDS011;6606;49.154;9.280;2023-02-04T01:07:44;7.27;;;5.00;;
13079;SDS011;6606;49.154;9.280;2023-02-04T01:10:26;8.47;;;5.83;;
13079;SDS011;6606;49.154;9.280;2023-02-04T01:13:08;10.70;;;5.63;;
13079;SDS011;6606;49.154;9.280;2023-02-04T01:15:50;11.33;;;5.63;;
13079;SDS011;6606;49.154;9.280;2023-02-04T01:18:33;13.03;;;6.57;;
13079;SDS011;6606;49.154;9.280;2023-02-04T01:21:14;7.43;;;6.00;;
13079;SDS011;6606;49.154;9.280;2023-02-04T01:23:56;12.17;;;6.70;;
13079;SDS011;6606;49.154;9.280;2023-02-04T01:26:38;8.37;;;6.27;;
13079;SDS011;6606;49.154;9.280;2023-02-04T01:29:19;10.47;;;6.00;;
13079;SDS011;6606;49.154;9.280;2023-02-04T01:32:01;8.60;;;5.87;;
13079;SDS011;6606;49.154;9.280;2023-02-04T01:34:45;7.20;;;5.13;;
13079;SDS011;6606;49.154;9.280;2023-02-04T01:37:26;6.33;;;4.77;;
13079;SDS011;6606;49.154;9.280;2023-02-04T01:40:08;9.37;;;5.57;;
13079;SDS011;6606;49.154;9.280;2023-02-04T01:42:51;8.47;;;5.03;;
13079;SDS011;6606;49.154;9.280;2023-02-04T01:45:34;6.93;;;5.07;;
13079;SDS011;6606;49.154;9.280;2023-02-04T01:48:16;6.60;;;5.40;;
13079;SDS011;6606;49.154;9.280;2023-02-04T01:51:03;6.87;;;4.73;;
13079;SDS011;6606;49.154;9.280;2023-02-04T01:53:46;6.90;;;4.67;;
13079;SDS011;6606;49.154;9.280;2023-02-04T01:56:28;8.00;;;4.80;;
13079;SDS011;6606;49.154;9.280;2023-02-04T01:59:11;8.93;;;4.53;;
13079;SDS011;6606;49.154;9.280;2023-02-04T02:01:55;5.60;;;4.20;;
13079;SDS011;6606;49.154;9.280;2023-02-04T02:04:36;7.20;;;4.57;;
13079;SDS011;6606;49.154;9.280;2023-02-04T02:07:20;7.80;;;4.37;;
13079;SDS011;6606;49.154;9.280;2023-02-04T02:10:02;8.40;;;4.17;;
13079;SDS011;6606;49.154;9.280;2023-02-04T02:12:45;5.83;;;4.27;;
13079;SDS011;6606;49.154;9.280;2023-02-04T02:15:28;6.50;;;4.40;;
13079;SDS011;6606;49.154;9.280;2023-02-04T02:18:10;5.17;;;4.37;;
13079;SDS011;6606;49.154;9.280;2023-02-04T02:20:53;7.70;;;4.50;;
13079;SDS011;6606;49.154;9.280;2023-02-04T02:23:47;7.93;;;4.70;;
13079;SDS011;6606;49.154;9.280;2023-02-04T02:26:32;9.77;;;4.50;;
13079;SDS011;6606;49.154;9.280;2023-02-04T02:29:13;9.73;;;4.90;;
13079;SDS011;6606;49.154;9.280;2023-02-04T02:31:55;7.40;;;3.90;;
13079;SDS011;6606;49.154;9.280;2023-02-04T02:34:39;10.50;;;3.73;;
13079;SDS011;6606;49.154;9.280;2023-02-04T02:37:22;11.83;;;3.43;;
13079;SDS011;6606;49.154;9.280;2023-02-04T02:40:06;7.17;;;3.27;;
13079;SDS011;6606;49.154;9.280;2023-02-04T02:42:49;10.67;;;3.37;;
13079;SDS011;6606;49.154;9.280;2023-02-04T02:45:34;11.30;;;3.60;;
13079;SDS011;6606;49.154;9.280;2023-02-04T02:48:16;8.50;;;3.30;;
13079;SDS011;6606;49.154;9.280;2023-02-04T02:50:58;15.43;;;3.70;;
13079;SDS011;6606;49.154;9.280;2023-02-04T02:53:39;12.70;;;3.33;;
13079;SDS011;6606;49.154;9.280;2023-02-04T02:56:23;14.60;;;3.20;;
13079;SDS011;6606;49.154;9.280;2023-02-04T02:59:12;9.40;;;3.23;;
13079;SDS011;6606;49.154;9.280;2023-02-04T03:01:54;9.07;;;3.33;;
13079;SDS011;6606;49.154;9.280;2023-02-04T03:04:42;11.37;;;3.27;;
13079;SDS011;6606;49.154;9.280;2023-02-04T03:07:31;13.63;;;3.57;;
13079;SDS011;6606;49.154;9.280;2023-02-04T03:10:13;14.47;;;3.87;;
13079;SDS011;6606;49.154;9.280;2023-02-04T03:12:58;12.77;;;3.20;;
13079;SDS011;6606;49.154;9.280;2023-02-04T03:15:40;11.07;;;3.20;;
13079;SDS011;6606;49.154;9.280;2023-02-04T03:18:24;11.70;;;3.30;;
13079;SDS011;6606;49.154;9.280;2023-02-04T03:21:07;16.70;;;3.33;;
13079;SDS011;6606;49.154;9.280;2023-02-04T03:23:50;11.70;;;3.50;;
13079;SDS011;6606;49.154;9.280;2023-02-04T03:26:35;8.77;;;2.90;;
13079;SDS011;6606;49.154;9.280;2023-02-04T03:29:19;10.60;;;2.87;;
13079;SDS011;6606;49.154;9.280;2023-02-04T03:32:01;14.47;;;3.60;;
13079;SDS011;6606;49.154;9.280;2023-02-04T03:34:45;9.37;;;3.63;;
13079;SDS011;6606;49.154;9.280;2023-02-04T03:37:27;12.10;;;3.10;;
13079;SDS011;6606;49.154;9.280;2023-02-04T03:40:09;10.93;;;2.90;;
13079;SDS011;6606;49.154;9.280;2023-02-04T03:42:51;10.80;;;3.43;;
13079;SDS011;6606;49.154;9.280;2023-02-04T03:45:34;11.90;;;3.50;;
13079;SDS011;6606;49.154;9.280;2023-02-04T03:48:16;10.27;;;3.27;;
13079;SDS011;6606;49.154;9.280;2023-02-04T03:50:58;14.53;;;3.60;;
13079;SDS011;6606;49.154;9.280;2023-02-04T03:53:40;16.37;;;3.50;;
13079;SDS011;6606;49.154;9.280;2023-02-04T03:56:21;12.03;;;3.53;;
13079;SDS011;6606;49.154;9.280;2023-02-04T03:59:03;12.20;;;3.40;;
13079;SDS011;6606;49.154;9.280;2023-02-04T04:01:46;14.70;;;3.30;;
13079;SDS011;6606;49.154;9.280;2023-02-04T04:04:28;12.53;;;3.40;;
13079;SDS011;6606;49.154;9.280;2023-02-04T04:07:10;8.83;;;3.00;;
13079;SDS011;6606;49.154;9.280;2023-02-04T04:09:51;11.47;;;3.33;;
13079;SDS011;6606;49.154;9.280;2023-02-04T04:12:33;15.80;;;4.33;;
13079;SDS011;6606;49.154;9.280;2023-02-04T04:15:15;15.13;;;4.23;;
13079;SDS011;6606;49.154;9.280;2023-02-04T04:17:58;8.73;;;3.20;;
13079;SDS011;6606;49.154;9.280;2023-02-04T04:20:40;13.20;;;3.30;;
13079;SDS011;6606;49.154;9.280;2023-02-04T04:23:21;12.33;;;3.30;;
13079;SDS011;6606;49.154;9.280;2023-02-04T04:26:03;12.77;;;3.50;;
13079;SDS011;6606;49.154;9.280;2023-02-04T04:28:45;6.40;;;2.80;;
13079;SDS011;6606;49.154;9.280;2023-02-04T04:31:27;12.73;;;3.90;;
13079;SDS011;6606;49.154;9.280;2023-02-04T04:34:10;13.93;;;3.20;;
13079;SDS011;6606;49.154;9.280;2023-02-04T04:36:51;11.27;;;3.30;;
13079;SDS011;6606;49.154;9.280;2023-02-04T04:39:33;9.40;;;2.97;;
13079;SDS011;6606;49.154;9.280;2023-02-04T04:42:15;10.50;;;3.40;;
13079;SDS011;6606;49.154;9.280;2023-02-04T04:44:56;13.47;;;3.97;;
13079;SDS011;6606;49.154;9.280;2023-02-04T04:47:38;10.10;;;4.00;;
13079;SDS011;6606;49.154;9.280;2023-02-04T04:50:21;18.40;;;4.57;;
13079;SDS011;6606;49.154;9.280;2023-02-04T04:53:03;16.03;;;3.97;;
13079;SDS011;6606;49.154;9.280;2023-02-04T04:55:45;9.00;;;3.67;;
13079;SDS011;6606;49.154;9.280;2023-02-04T04:58:27;13.27;;;4.23;;
13079;SDS011;6606;49.154;9.280;2023-02-04T05:01:09;13.00;;;4.27;;
13079;SDS011;6606;49.154;9.280;2023-02-04T05:03:50;14.67;;;3.87;;
13079;SDS011;6606;49.154;9.280;2023-02-04T05:06:33;13.40;;;4.00;;
13079;SDS011;6606;49.154;9.280;2023-02-04T05:09:15;12.17;;;3.80;;
13079;SDS011;6606;49.154;9.280;2023-02-04T05:11:57;12.33;;;3.70;;
13079;SDS011;6606;49.154;9.280;2023-02-04T05:14:38;15.07;;;4.40;;
13079;SDS011;6606;49.154;9.280;2023-02-04T05:17:20;13.50;;;4.10;;
13079;SDS011;6606;49.154;9.280;2023-02-04T05:20:02;15.23;;;3.90;;
13079;SDS011;6606;49.154;9.280;2023-02-04T05:22:45;14.63;;;4.10;;
13079;SDS011;6606;49.154;9.280;2023-02-04T05:25:27;13.33;;;3.97;;
13079;SDS011;6606;49.154;9.280;2023-02-04T05:28:09;8.87;;;3.47;;
13079;SDS011;6606;49.154;9.280;2023-02-04T05:30:51;13.70;;;3.70;;
13079;SDS011;6606;49.154;9.280;2023-02-04T05:33:33;11.50;;;3.40;;
13079;SDS011;6606;49.154;9.280;2023-02-04T05:36:14;12.53;;;3.20;;
13079;SDS011;6606;49.154;9.280;2023-02-04T05:38:58;10.60;;;3.30;;
13079;SDS011;6606;49.154;9.280;2023-02-04T05:41:40;11.73;;;3.30;;
13079;SDS011;6606;49.154;9.280;2023-02-04T05:44:21;10.00;;;2.90;;
13079;SDS011;6606;49.154;9.280;2023-02-04T05:47:03;12.17;;;3.40;;
13079;SDS011;6606;49.154;9.280;2023-02-04T05:49:45;15.53;;;4.00;;
13079;SDS011;6606;49.154;9.280;2023-02-04T05:52:27;11.20;;;3.57;;
13079;SDS011;6606;49.154;9.280;2023-02-04T05:55:10;9.47;;;3.33;;
13079;SDS011;6606;49.154;9.280;2023-02-04T05:57:53;13.20;;;3.80;;
13079;SDS011;6606;49.154;9.280;2023-02-04T06:00:34;9.70;;;3.17;;
13079;SDS011;6606;49.154;9.280;2023-02-04T06:03:16;12.20;;;3.80;;
13079;SDS011;6606;49.154;9.280;2023-02-04T06:05:58;7.87;;;3.50;;
13079;SDS011;6606;49.154;9.280;2023-02-04T06:08:40;9.73;;;3.23;;
13079;SDS011;6606;49.154;9.280;2023-02-04T06:11:23;9.07;;;3.43;;
13079;SDS011;6606;49.154;9.280;2023-02-04T06:14:05;12.37;;;4.83;;
13079;SDS011;6606;49.154;9.280;2023-02-04T06:16:47;9.97;;;4.57;;
13079;SDS011;6606;49.154;9.280;2023-02-04T06:19:28;9.10;;;4.33;;
13079;SDS011;6606;49.154;9.280;2023-02-04T06:22:10;11.67;;;4.67;;
13079;SDS011;6606;49.154;9.280;2023-02-04T06:24:51;14.00;;;4.50;;
13079;SDS011;6606;49.154;9.280;2023-02-04T06:27:35;12.77;;;4.63;;
13079;SDS011;6606;49.154;9.280;2023-02-04T06:30:17;13.40;;;4.40;;
13079;SDS011;6606;49.154;9.280;2023-02-04T06:32:59;9.53;;;3.87;;
13079;SDS011;6606;49.154;9.280;2023-02-04T06:35:41;10.10;;;4.13;;
13079;SDS011;6606;49.154;9.280;2023-02-04T06:38:22;13.07;;;4.23;;
13079;SDS011;6606;49.154;9.280;2023-02-04T06:41:04;12.23;;;4.10;;
13079;SDS011;6606;49.154;9.280;2023-02-04T06:43:47;11.87;;;4.37;;
13079;SDS011;6606;49.154;9.280;2023-02-04T06:46:29;11.93;;;4.40;;
13079;SDS011;6606;49.154;9.280;2023-02-04T06:49:11;13.13;;;5.57;;
13079;SDS011;6606;49.154;9.280;2023-02-04T06:51:52;14.33;;;5.30;;
13079;SDS011;6606;49.154;9.280;2023-02-04T06:54:34;12.80;;;5.47;;
13079;SDS011;6606;49.154;9.280;2023-02-04T06:57:16;15.13;;;5.10;;
13079;SDS011;6606;49.154;9.280;2023-02-04T06:59:59;10.67;;;4.67;;
13079;SDS011;6606;49.154;9.280;2023-02-04T07:02:40;11.00;;;5.23;;
13079;SDS011;6606;49.154;9.280;2023-02-04T07:05:23;12.47;;;4.70;;
13079;SDS011;6606;49.154;9.280;2023-02-04T07:08:04;12.23;;;4.80;;
13079;SDS011;6606;49.154;9.280;2023-02-04T07:10:46;11.40;;;4.53;;
13079;SDS011;6606;49.154;9.280;2023-02-04T07:13:28;17.20;;;5.70;;
13079;SDS011;6606;49.154;9.280;2023-02-04T07:16:11;12.67;;;4.33;;
13079;SDS011;6606;49.154;9.280;2023-02-04T07:18:53;13.10;;;4.63;;
13079;SDS011;6606;49.154;9.280;2023-02-04T07:21:34;13.50;;;4.27;;
13079;SDS011;6606;49.154;9.280;2023-02-04T07:24:16;12.77;;;4.47;;
13079;SDS011;6606;49.154;9.280;2023-02-04T07:26:58;13.43;;;4.50;;
13079;SDS011;6606;49.154;9.280;2023-02-04T07:29:39;10.47;;;3.93;;
13079;SDS011;6606;49.154;9.280;2023-02-04T07:32:22;7.10;;;3.30;;
13079;SDS011;6606;49.154;9.280;2023-02-04T07:35:11;10.60;;;3.70;;
13079;SDS011;6606;49.154;9.280;2023-02-04T07:38:22;11.57;;;3.43;;
13079;SDS011;6606;49.154;9.280;2023-02-04T07:41:03;14.63;;;4.00;;
13079;SDS011;6606;49.154;9.280;2023-02-04T07:43:45;11.83;;;4.87;;
13079;SDS011;6606;49.154;9.280;2023-02-04T07:46:27;15.57;;;6.27;;
13079;SDS011;6606;49.154;9.280;2023-02-04T07:49:11;12.67;;;5.83;;
13079;SDS011;6606;49.154;9.280;2023-02-04T07:51:53;16.67;;;6.50;;
13079;SDS011;6606;49.154;9.280;2023-02-04T07:54:36;13.33;;;5.87;;
13079;SDS011;6606;49.154;9.280;2023-02-04T07:57:18;13.50;;;5.87;;
13079;SDS011;6606;49.154;9.280;2023-02-04T08:00:00;14.37;;;6.03;;
13079;SDS011;6606;49.154;9.280;2023-02-04T08:02:42;19.80;;;7.27;;
13079;SDS011;6606;49.154;9.280;2023-02-04T08:05:25;16.40;;;6.90;;
13079;SDS011;6606;49.154;9.280;2023-02-04T08:08:07;15.50;;;7.00;;
13079;SDS011;6606;49.154;9.280;2023-02-04T08:10:48;21.93;;;7.10;;
13079;SDS011;6606;49.154;9.280;2023-02-04T08:13:30;13.90;;;6.47;;
13079;SDS011;6606;49.154;9.280;2023-02-04T08:16:12;12.47;;;5.73;;
13079;SDS011;6606;49.154;9.280;2023-02-04T08:18:53;14.03;;;5.40;;
13079;SDS011;6606;49.154;9.280;2023-02-04T08:21:36;15.43;;;5.13;;
13079;SDS011;6606;49.154;9.280;2023-02-04T08:24:18;16.43;;;4.57;;
13079;SDS011;6606;49.154;9.280;2023-02-04T08:27:00;15.87;;;4.73;;
13079;SDS011;6606;49.154;9.280;2023-02-04T08:29:41;19.80;;;5.33;;
13079;SDS011;6606;49.154;9.280;2023-02-04T08:32:23;16.03;;;5.60;;
13079;SDS011;6606;49.154;9.280;2023-02-04T08:35:07;20.77;;;6.17;;
13079;SDS011;6606;49.154;9.280;2023-02-04T08:37:50;13.33;;;6.27;;
13079;SDS011;6606;49.154;9.280;2023-02-04T08:40:32;16.57;;;6.57;;
13079;SDS011;6606;49.154;9.280;2023-02-04T08:43:13;12.87;;;5.57;;
13079;SDS011;6606;49.154;9.280;2023-02-04T08:45:55;15.70;;;5.90;;
13079;SDS011;6606;49.154;9.280;2023-02-04T08:48:37;15.87;;;5.60;;
13079;SDS011;6606;49.154;9.280;2023-02-04T08:51:18;11.67;;;4.93;;
13079;SDS011;6606;49.154;9.280;2023-02-04T08:54:01;15.70;;;5.27;;
13079;SDS011;6606;49.154;9.280;2023-02-04T08:56:43;19.67;;;6.00;;
13079;SDS011;6606;49.154;9.280;2023-02-04T08:59:25;12.90;;;5.00;;
13079;SDS011;6606;49.154;9.280;2023-02-04T09:02:08;14.30;;;5.07;;
13079;SDS011;6606;49.154;9.280;2023-02-04T09:04:50;11.40;;;5.00;;
13079;SDS011;6606;49.154;9.280;2023-02-04T09:07:31;25.87;;;6.47;;
13079;SDS011;6606;49.154;9.280;2023-02-04T09:10:15;15.30;;;5.73;;
13079;SDS011;6606;49.154;9.280;2023-02-04T09:12:57;14.73;;;5.33;;
13079;SDS011;6606;49.154;9.280;2023-02-04T09:15:38;15.20;;;4.83;;
13079;SDS011;6606;49.154;9.280;2023-02-04T09:18:20;18.40;;;5.13;;
13079;SDS011;6606;49.154;9.280;2023-02-04T09:21:04;12.63;;;4.60;;
13079;SDS011;6606;49.154;9.280;2023-02-04T09:23:46;16.30;;;5.40;;
13079;SDS011;6606;49.154;9.280;2023-02-04T09:26:29;14.67;;;5.10;;
13079;SDS011;6606;49.154;9.280;2023-02-04T09:29:11;12.63;;;4.57;;
13079;SDS011;6606;49.154;9.280;2023-02-04T09:31:52;14.43;;;4.33;;
13079;SDS011;6606;49.154;9.280;2023-02-04T09:34:34;14.67;;;5.00;;
13079;SDS011;6606;49.154;9.280;2023-02-04T09:37:16;17.70;;;5.57;;
13079;SDS011;6606;49.154;9.280;2023-02-04T09:39:57;16.07;;;5.10;;
13079;SDS011;6606;49.154;9.280;2023-02-04T09:42:40;15.77;;;4.90;;
13079;SDS011;6606;49.154;9.280;2023-02-04T09:45:24;17.80;;;5.00;;
13079;SDS011;6606;49.154;9.280;2023-02-04T09:48:08;14.20;;;4.83;;
13079;SDS011;6606;49.154;9.280;2023-02-04T09:50:58;14.30;;;4.57;;
13079;SDS011;6606;49.154;9.280;2023-02-04T09:53:45;21.83;;;5.03;;
13079;SDS011;6606;49.154;9.280;2023-02-04T09:56:28;18.00;;;5.00;;
13079;SDS011;6606;49.154;9.280;2023-02-04T09:59:13;18.57;;;5.80;;
13079;SDS011;6606;49.154;9.280;2023-02-04T10:01:56;20.40;;;5.40;;
13079;SDS011;6606;49.154;9.280;2023-02-04T10:04:41;13.47;;;4.73;;
13079;SDS011;6606;49.154;9.280;2023-02-04T10:07:23;18.60;;;5.53;;
13079;SDS011;6606;49.154;9.280;2023-02-04T10:10:08;12.77;;;4.93;;
13079;SDS011;6606;49.154;9.280;2023-02-04T10:12:57;15.83;;;4.80;;
13079;SDS011;6606;49.154;9.280;2023-02-04T10:15:42;17.67;;;4.33;;
13079;SDS011;6606;49.154;9.280;2023-02-04T10:18:25;21.77;;;5.20;;
13079;SDS011;6606;49.154;9.280;2023-02-04T10:21:12;16.53;;;4.80;;
13079;SDS011;6606;49.154;9.280;2023-02-04T10:23:57;14.57;;;4.40;;
13079;SDS011;6606;49.154;9.280;2023-02-04T10:26:41;16.83;;;4.17;;
13079;SDS011;6606;49.154;9.280;2023-02-04T10:29:22;15.80;;;3.97;;
13079;SDS011;6606;49.154;9.280;2023-02-04T10:35:14;14.83;;;3.47;;
13079;SDS011;6606;49.154;9.280;2023-02-04T10:38:06;13.23;;;3.37;;
13079;SDS011;6606;49.154;9.280;2023-02-04T10:40:59;17.50;;;3.70;;
13079;SDS011;6606;49.154;9.280;2023-02-04T10:43:41;13.50;;;3.60;;
13079;SDS011;6606;49.154;9.280;2023-02-04T10:46:22;18.73;;;3.80;;
13079;SDS011;6606;49.154;9.280;2023-02-04T10:49:12;12.27;;;3.30;;
13079;SDS011;6606;49.154;9.280;2023-02-04T10:51:59;10.20;;;2.80;;
13079;SDS011;6606;49.154;9.280;2023-02-04T10:54:43;10.93;;;2.87;;
13079;SDS011;6606;49.154;9.280;2023-02-04T10:57:25;13.43;;;2.97;;
13079;SDS011;6606;49.154;9.280;2023-02-04T11:00:13;13.93;;;3.30;;
13079;SDS011;6606;49.154;9.280;2023-02-04T11:02:57;12.83;;;3.00;;
13079;SDS011;6606;49.154;9.280;2023-02-04T11:05:43;13.50;;;3.20;;
13079;SDS011;6606;49.154;9.280;2023-02-04T11:08:25;13.40;;;3.50;;
13079;SDS011;6606;49.154;9.280;2023-02-04T11:11:13;13.33;;;3.00;;
13079;SDS011;6606;49.154;9.280;2023-02-04T11:13:57;10.63;;;2.60;;
13079;SDS011;6606;49.154;9.280;2023-02-04T11:16:45;12.07;;;3.00;;
13079;SDS011;6606;49.154;9.280;2023-02-04T11:19:32;10.53;;;3.43;;
13079;SDS011;6606;49.154;9.280;2023-02-04T11:22:21;13.27;;;2.83;;
13079;SDS011;6606;49.154;9.280;2023-02-04T11:25:29;13.50;;;3.30;;
13079;SDS011;6606;49.154;9.280;2023-02-04T11:28:13;17.80;;;3.70;;
13079;SDS011;6606;49.154;9.280;2023-02-04T11:30:58;13.77;;;3.40;;
13079;SDS011;6606;49.154;9.280;2023-02-04T11:33:41;12.63;;;3.30;;
13079;SDS011;6606;49.154;9.280;2023-02-04T11:36:22;13.23;;;3.90;;
13079;SDS011;6606;49.154;9.280;2023-02-04T11:39:12;18.37;;;3.70;;
13079;SDS011;6606;49.154;9.280;2023-02-04T11:41:57;12.17;;;3.57;;
13079;SDS011;6606;49.154;9.280;2023-02-04T11:44:39;9.90;;;3.03;;
13079;SDS011;6606;49.154;9.280;2023-02-04T11:47:21;10.47;;;3.30;;
13079;SDS011;6606;49.154;9.280;2023-02-04T11:50:10;11.07;;;3.43;;
13079;SDS011;6606;49.154;9.280;2023-02-04T11:53:04;13.63;;;3.43;;
13079;SDS011;6606;49.154;9.280;2023-02-04T11:55:47;12.33;;;4.27;;
13079;SDS011;6606;49.154;9.280;2023-02-04T11:58:29;12.53;;;3.40;;
13079;SDS011;6606;49.154;9.280;2023-02-04T12:01:15;12.17;;;3.30;;
13079;SDS011;6606;49.154;9.280;2023-02-04T12:03:59;16.87;;;3.70;;
13079;SDS011;6606;49.154;9.280;2023-02-04T12:06:42;12.10;;;3.30;;
13079;SDS011;6606;49.154;9.280;2023-02-04T12:09:24;11.80;;;3.30;;
13079;SDS011;6606;49.154;9.280;2023-02-04T12:12:10;14.60;;;3.47;;
13079;SDS011;6606;49.154;9.280;2023-02-04T12:15:00;14.33;;;3.30;;
13079;SDS011;6606;49.154;9.280;2023-02-04T12:17:44;15.43;;;3.37;;
13079;SDS011;6606;49.154;9.280;2023-02-04T12:20:26;17.57;;;3.73;;
13079;SDS011;6606;49.154;9.280;2023-02-04T12:23:07;11.63;;;3.40;;
13079;SDS011;6606;49.154;9.280;2023-02-04T12:25:49;17.70;;;4.17;;
13079;SDS011;6606;49.154;9.280;2023-02-04T12:28:32;16.27;;;3.63;;
13079;SDS011;6606;49.154;9.280;2023-02-04T12:31:14;14.50;;;5.73;;
13079;SDS011;6606;49.154;9.280;2023-02-04T12:33:56;17.30;;;4.80;;
13079;SDS011;6606;49.154;9.280;2023-02-04T12:36:38;10.73;;;3.33;;
13079;SDS011;6606;49.154;9.280;2023-02-04T12:39:20;11.43;;;3.43;;
13079;SDS011;6606;49.154;9.280;2023-02-04T12:42:02;10.60;;;2.80;;
13079;SDS011;6606;49.154;9.280;2023-02-04T12:44:45;13.03;;;3.17;;
13079;SDS011;6606;49.154;9.280;2023-02-04T12:47:27;12.33;;;2.80;;
13079;SDS011;6606;49.154;9.280;2023-02-04T12:50:09;11.53;;;3.30;;
13079;SDS011;6606;49.154;9.280;2023-02-04T12:52:53;10.97;;;2.80;;
13079;SDS011;6606;49.154;9.280;2023-02-04T12:55:36;12.97;;;3.40;;
13079;SDS011;6606;49.154;9.280;2023-02-04T12:58:18;16.03;;;3.30;;
13079;SDS011;6606;49.154;9.280;2023-02-04T13:01:01;11.07;;;3.10;;
13079;SDS011;6606;49.154;9.280;2023-02-04T13:03:42;11.30;;;2.87;;
13079;SDS011;6606;49.154;9.280;2023-02-04T13:06:24;12.10;;;2.57;;
13079;SDS011;6606;49.154;9.280;2023-02-04T13:09:06;11.70;;;2.90;;
13079;SDS011;6606;49.154;9.280;2023-02-04T13:11:47;15.93;;;3.23;;
13079;SDS011;6606;49.154;9.280;2023-02-04T13:14:29;14.10;;;3.13;;
13079;SDS011;6606;49.154;9.280;2023-02-04T13:17:13;12.23;;;3.67;;
13079;SDS011;6606;49.154;9.280;2023-02-04T13:19:54;9.33;;;2.80;;
13079;SDS011;6606;49.154;9.280;2023-02-04T13:22:36;8.40;;;2.63;;
13079;SDS011;6606;49.154;9.280;2023-02-04T13:25:18;15.20;;;3.70;;
13079;SDS011;6606;49.154;9.280;2023-02-04T13:27:59;11.93;;;3.20;;
13079;SDS011;6606;49.154;9.280;2023-02-04T13:30:41;12.93;;;3.47;;
13079;SDS011;6606;49.154;9.280;2023-02-04T13:33:24;12.33;;;3.27;;
13079;SDS011;6606;49.154;9.280;2023-02-04T13:36:06;12.50;;;3.40;;
13079;SDS011;6606;49.154;9.280;2023-02-04T13:38:48;11.43;;;3.17;;
13079;SDS011;6606;49.154;9.280;2023-02-04T13:41:30;10.53;;;3.10;;
13079;SDS011;6606;49.154;9.280;2023-02-04T13:44:12;6.43;;;2.30;;
13079;SDS011;6606;49.154;9.280;2023-02-04T13:46:54;9.53;;;2.53;;
13079;SDS011;6606;49.154;9.280;2023-02-04T13:49:37;10.03;;;2.50;;
13079;SDS011;6606;49.154;9.280;2023-02-04T13:52:19;11.27;;;2.73;;
13079;SDS011;6606;49.154;9.280;2023-02-04T13:55:00;9.67;;;2.87;;
13079;SDS011;6606;49.154;9.280;2023-02-04T13:57:42;11.37;;;2.93;;
13079;SDS011;6606;49.154;9.280;2023-02-04T14:00:24;10.30;;;2.93;;
13079;SDS011;6606;49.154;9.280;2023-02-04T14:03:06;11.47;;;2.70;;
13079;SDS011;6606;49.154;9.280;2023-02-04T14:05:49;11.43;;;2.73;;
13079;SDS011;6606;49.154;9.280;2023-02-04T14:08:31;9.03;;;2.63;;
13079;SDS011;6606;49.154;9.280;2023-02-04T14:11:12;10.33;;;3.00;;
13079;SDS011;6606;49.154;9.280;2023-02-04T14:13:54;7.30;;;2.60;;
13079;SDS011;6606;49.154;9.280;2023-02-04T14:16:36;11.10;;;3.07;;
13079;SDS011;6606;49.154;9.280;2023-02-04T14:19:18;7.30;;;2.13;;
13079;SDS011;6606;49.154;9.280;2023-02-04T14:22:01;8.07;;;2.50;;
13079;SDS011;6606;49.154;9.280;2023-02-04T14:24:43;10.30;;;2.90;;
13079;SDS011;6606;49.154;9.280;2023-02-04T14:27:26;10.83;;;2.57;;
13079;SDS011;6606;49.154;9.280;2023-02-04T14:30:11;8.23;;;2.23;;
13079;SDS011;6606;49.154;9.280;2023-02-04T14:32:57;8.67;;;2.50;;
13079;SDS011;6606;49.154;9.280;2023-02-04T14:35:40;8.70;;;2.67;;
13079;SDS011;6606;49.154;9.280;2023-02-04T14:38:23;11.83;;;2.57;;
13079;SDS011;6606;49.154;9.280;2023-02-04T14:41:09;8.90;;;2.40;;
13079;SDS011;6606;49.154;9.280;2023-02-04T14:43:55;6.63;;;2.37;;
13079;SDS011;6606;49.154;9.280;2023-02-04T14:46:37;10.83;;;2.57;;
13079;SDS011;6606;49.154;9.280;2023-02-04T14:49:20;10.43;;;2.30;;
13079;SDS011;6606;49.154;9.280;2023-02-04T14:52:02;7.37;;;2.63;;
13079;SDS011;6606;49.154;9.280;2023-02-04T14:54:45;10.67;;;2.90;;
13079;SDS011;6606;49.154;9.280;2023-02-04T14:57:27;7.47;;;1.90;;
13079;SDS011;6606;49.154;9.280;2023-02-04T15:00:09;9.27;;;1.93;;
13079;SDS011;6606;49.154;9.280;2023-02-04T15:02:51;7.57;;;1.90;;
13079;SDS011;6606;49.154;9.280;2023-02-04T15:05:33;9.60;;;2.07;;
13079;SDS011;6606;49.154;9.280;2023-02-04T15:08:15;10.10;;;2.50;;
13079;SDS011;6606;49.154;9.280;2023-02-04T15:10:58;4.13;;;1.80;;
13079;SDS011;6606;49.154;9.280;2023-02-04T15:13:40;6.60;;;1.90;;
13079;SDS011;6606;49.154;9.280;2023-02-04T15:16:22;6.70;;;1.60;;
13079;SDS011;6606;49.154;9.280;2023-02-04T15:19:03;6.87;;;1.57;;
13079;SDS011;6606;49.154;9.280;2023-02-04T15:21:45;6.60;;;1.87;;
13079;SDS011;6606;49.154;9.280;2023-02-04T15:24:27;5.27;;;1.60;;
13079;SDS011;6606;49.154;9.280;2023-02-04T15:27:10;6.07;;;1.50;;
13079;SDS011;6606;49.154;9.280;2023-02-04T15:29:52;5.20;;;2.13;;
13079;SDS011;6606;49.154;9.280;2023-02-04T15:32:34;5.60;;;2.00;;
13079;SDS011;6606;49.154;9.280;2023-02-04T15:35:16;7.20;;;1.87;;
13079;SDS011;6606;49.154;9.280;2023-02-04T15:37:58;12.73;;;2.00;;
13079;SDS011;6606;49.154;9.280;2023-02-04T15:40:40;8.67;;;2.43;;
13079;SDS011;6606;49.154;9.280;2023-02-04T15:43:23;6.97;;;2.27;;
13079;SDS011;6606;49.154;9.280;2023-02-04T15:46:05;10.23;;;3.03;;
13079;SDS011;6606;49.154;9.280;2023-02-04T15:48:47;9.40;;;3.10;;
13079;SDS011;6606;49.154;9.280;2023-02-04T15:51:29;8.40;;;3.20;;
13079;SDS011;6606;49.154;9.280;2023-02-04T15:54:10;9.70;;;3.67;;
13079;SDS011;6606;49.154;9.280;2023-02-04T15:56:53;10.10;;;3.97;;
13079;SDS011;6606;49.154;9.280;2023-02-04T15:59:36;6.93;;;3.20;;
13079;SDS011;6606;49.154;9.280;2023-02-04T16:02:17;10.63;;;3.20;;
13079;SDS011;6606;49.154;9.280;2023-02-04T16:04:59;11.07;;;3.63;;
13079;SDS011;6606;49.154;9.280;2023-02-04T16:07:41;7.50;;;2.83;;
13079;SDS011;6606;49.154;9.280;2023-02-04T16:10:23;7.73;;;3.17;;
13079;SDS011;6606;49.154;9.280;2023-02-04T16:13:20;7.17;;;2.50;;
13079;SDS011;6606;49.154;9.280;2023-02-04T16:16:01;9.77;;;3.70;;
13079;SDS011;6606;49.154;9.280;2023-02-04T16:18:43;7.83;;;3.30;;
13079;SDS011;6606;49.154;9.280;2023-02-04T16:21:25;8.63;;;3.00;;
13079;SDS011;6606;49.154;9.280;2023-02-04T16:24:06;8.73;;;2.80;;
13079;SDS011;6606;49.154;9.280;2023-02-04T16:26:48;6.07;;;2.30;;
13079;SDS011;6606;49.154;9.280;2023-02-04T16:29:31;10.53;;;2.40;;